createdAt,value
2023-01-28T00:02:21.232Z,97463.50
2023-01-28T00:04:47.913Z,97457.72
2023-01-28T00:07:14.567Z,97466.63
2023-01-28T00:09:41.183Z,97458.66
2023-01-28T00:12:07.840Z,97462.56
2023-01-28T00:14:34.495Z,97467.47
2023-01-28T00:17:01.186Z,97460.63
2023-01-28T00:19:27.800Z,97464.34
2023-01-28T00:21:54.474Z,97467.72
2023-01-28T00:24:21.125Z,97465.00
2023-01-28T00:26:47.816Z,97474.25
2023-01-28T00:29:14.525Z,97471.81
2023-01-28T00:31:41.248Z,97468.00
2023-01-28T00:34:07.988Z,97467.28
2023-01-28T00:36:34.665Z,97476.72
2023-01-28T00:39:01.303Z,97471.06
2023-01-28T00:41:27.984Z,97470.81
2023-01-28T00:43:54.673Z,97474.41
2023-01-28T00:46:21.651Z,97468.53
2023-01-28T00:48:48.317Z,97468.94
2023-01-28T00:51:14.963Z,97473.88
2023-01-28T00:53:41.599Z,97479.97
2023-01-28T00:56:08.262Z,97472.19
2023-01-28T00:58:34.915Z,97481.69
2023-01-28T01:01:01.545Z,97480.19
2023-01-28T01:03:28.180Z,97483.88
2023-01-28T01:05:54.850Z,97473.06
2023-01-28T01:08:21.534Z,97484.41
2023-01-28T01:10:48.209Z,97488.63
2023-01-28T01:13:14.933Z,97489.31
2023-01-28T01:15:41.583Z,97484.88
2023-01-28T01:18:08.250Z,97487.38
2023-01-28T01:20:34.858Z,97490.78
2023-01-28T01:23:01.575Z,97489.50
2023-01-28T01:25:28.205Z,97496.81
2023-01-28T01:27:54.806Z,97490.13
2023-01-28T01:30:21.473Z,97486.41
2023-01-28T01:32:48.150Z,97495.69
2023-01-28T01:35:15.239Z,97493.94
2023-01-28T01:37:42.037Z,97486.63
2023-01-28T01:40:08.713Z,97491.47
2023-01-28T01:42:35.315Z,97492.66
2023-01-28T01:45:02.003Z,97493.47
2023-01-28T01:47:28.655Z,97497.31
2023-01-28T01:49:55.344Z,97494.34
2023-01-28T01:52:21.985Z,97493.28
2023-01-28T01:54:48.664Z,97500.25
2023-01-28T01:57:15.327Z,97501.91
2023-01-28T01:59:41.924Z,97497.94
2023-01-28T02:02:08.704Z,97502.59
2023-01-28T02:04:35.338Z,97498.09
2023-01-28T02:07:02.061Z,97496.03
2023-01-28T02:09:28.769Z,97497.66
2023-01-28T02:11:55.378Z,97506.81
2023-01-28T02:14:30.506Z,97510.66
2023-01-28T02:16:57.969Z,97510.50
2023-01-28T02:19:24.682Z,97504.63
2023-01-28T02:21:51.327Z,97503.66
2023-01-28T02:24:18.019Z,97499.84
2023-01-28T02:26:44.724Z,97503.66
2023-01-28T02:29:11.432Z,97506.25
2023-01-28T02:31:38.342Z,97503.13
2023-01-28T02:34:05.123Z,97504.25
2023-01-28T02:36:31.842Z,97497.38
2023-01-28T02:38:58.491Z,97494.66
2023-01-28T02:41:25.196Z,97497.63
2023-01-28T02:43:51.878Z,97488.66
2023-01-28T02:46:18.612Z,97487.00
2023-01-28T02:48:45.330Z,97488.63
2023-01-28T02:51:11.967Z,97481.66
2023-01-28T02:53:38.651Z,97489.56
2023-01-28T02:56:05.283Z,97483.97
2023-01-28T02:58:32.004Z,97483.97
2023-01-28T03:00:58.719Z,97490.53
2023-01-28T03:03:25.403Z,97492.75
2023-01-28T03:05:52.079Z,97490.13
2023-01-28T03:08:18.781Z,97492.47
2023-01-28T03:10:45.417Z,97493.28
2023-01-28T03:13:12.078Z,97497.94
2023-01-28T03:15:38.825Z,97488.38
2023-01-28T03:18:05.550Z,97497.13
2023-01-28T03:20:32.206Z,97491.34
2023-01-28T03:22:58.863Z,97497.09
2023-01-28T03:25:25.483Z,97491.91
2023-01-28T03:27:52.078Z,97496.50
2023-01-28T03:30:18.745Z,97495.81
2023-01-28T03:32:45.429Z,97505.03
2023-01-28T03:35:12.229Z,97499.56
2023-01-28T03:37:38.891Z,97499.56
2023-01-28T03:40:05.606Z,97500.09
2023-01-28T03:42:32.305Z,97498.19
2023-01-28T03:44:58.921Z,97501.22
2023-01-28T03:47:28.009Z,97505.59
2023-01-28T03:49:55.156Z,97512.66
2023-01-28T03:52:21.784Z,97512.63
2023-01-28T03:54:48.451Z,97516.94
2023-01-28T03:57:15.100Z,97505.81
2023-01-28T03:59:41.692Z,97507.59
2023-01-28T04:02:08.396Z,97503.91
2023-01-28T04:04:35.107Z,97498.59
2023-01-28T04:07:01.783Z,97496.69
2023-01-28T04:09:28.402Z,97494.53
2023-01-28T04:11:55.077Z,97496.16
2023-01-28T04:14:21.679Z,97493.53
2023-01-28T04:16:48.381Z,97500.06
2023-01-28T04:19:15.054Z,97499.09
2023-01-28T04:21:41.686Z,97510.19
2023-01-28T04:24:08.378Z,97510.34
2023-01-28T04:26:35.109Z,97513.81
2023-01-28T04:29:01.709Z,97504.66
2023-01-28T04:31:28.434Z,97513.22
2023-01-28T04:33:55.126Z,97515.44
2023-01-28T04:36:21.769Z,97523.84
2023-01-28T04:38:48.406Z,97528.25
2023-01-28T04:41:15.068Z,97523.34
2023-01-28T04:43:41.751Z,97521.31
2023-01-28T04:46:08.450Z,97524.19
2023-01-28T04:48:35.092Z,97533.97
2023-01-28T04:51:01.752Z,97529.47
2023-01-28T04:53:28.452Z,97534.16
2023-01-28T04:55:55.109Z,97532.19
2023-01-28T04:58:21.718Z,97542.03
2023-01-28T05:00:48.395Z,97546.06
2023-01-28T05:03:15.111Z,97555.19
2023-01-28T05:05:41.767Z,97546.88
2023-01-28T05:08:08.440Z,97546.94
2023-01-28T05:10:35.115Z,97554.63
2023-01-28T05:13:01.773Z,97558.69
2023-01-28T05:15:28.426Z,97559.06
2023-01-28T05:17:55.032Z,97568.16
2023-01-28T05:20:21.700Z,97564.50
2023-01-28T05:22:48.309Z,97572.13
2023-01-28T05:25:15.302Z,97567.06
2023-01-28T05:27:42.139Z,97576.06
2023-01-28T05:30:08.819Z,97579.53
2023-01-28T05:32:35.516Z,97572.47
2023-01-28T05:35:02.259Z,97577.56
2023-01-28T05:37:28.985Z,97576.22
2023-01-28T05:39:55.579Z,97584.97
2023-01-28T05:42:22.195Z,97589.47
2023-01-28T05:44:48.865Z,97587.69
2023-01-28T05:47:15.469Z,97586.50
2023-01-28T05:49:42.137Z,97591.16
2023-01-28T05:52:08.846Z,97594.84
2023-01-28T05:54:35.507Z,97597.97
2023-01-28T05:57:02.182Z,97592.66
2023-01-28T05:59:28.869Z,97591.53
2023-01-28T06:01:55.487Z,97599.91
2023-01-28T06:04:22.153Z,97602.28
2023-01-28T06:06:48.797Z,97608.44
2023-01-28T06:09:15.448Z,97605.69
2023-01-28T06:11:42.138Z,97607.47
2023-01-28T06:14:08.774Z,97608.69
2023-01-28T06:16:35.449Z,97603.59
2023-01-28T06:19:02.285Z,97615.25
2023-01-28T06:21:30.223Z,97614.97
2023-01-28T06:23:57.099Z,97617.28
2023-01-28T06:26:23.735Z,97621.03
2023-01-28T06:28:50.391Z,97628.94
2023-01-28T06:31:17.099Z,97624.81
2023-01-28T06:33:43.764Z,97628.41
2023-01-28T06:36:10.455Z,97636.31
2023-01-28T06:38:37.123Z,97631.69
2023-01-28T06:41:03.821Z,97638.81
2023-01-28T06:43:30.516Z,97650.56
2023-01-28T06:45:57.208Z,97639.31
2023-01-28T06:48:23.913Z,97642.34
2023-01-28T06:50:50.534Z,97644.56
2023-01-28T06:53:17.193Z,97649.75
2023-01-28T06:55:43.822Z,97652.34
2023-01-28T06:58:10.435Z,97660.44
2023-01-28T07:00:37.033Z,97657.66
2023-01-28T07:03:03.754Z,97660.16
2023-01-28T07:05:30.396Z,97663.84
2023-01-28T07:07:57.115Z,97662.34
2023-01-28T07:10:23.784Z,97663.41
2023-01-28T07:12:50.436Z,97664.63
2023-01-28T07:15:17.131Z,97665.88
2023-01-28T07:17:43.779Z,97666.72
2023-01-28T07:20:10.500Z,97671.88
2023-01-28T07:22:37.108Z,97667.69
2023-01-28T07:25:03.877Z,97669.03
2023-01-28T07:27:30.573Z,97672.97
2023-01-28T07:29:57.258Z,97677.06
2023-01-28T07:32:23.920Z,97675.13
2023-01-28T07:34:50.664Z,97673.06
2023-01-28T07:37:17.279Z,97680.63
2023-01-28T07:39:43.947Z,97686.63
2023-01-28T07:42:10.539Z,97680.19
2023-01-28T07:44:37.218Z,97685.84
2023-01-28T07:47:03.940Z,97684.59
2023-01-28T07:49:30.640Z,97688.81
2023-01-28T07:51:57.319Z,97689.50
2023-01-28T07:54:23.987Z,97687.75
2023-01-28T07:56:50.668Z,97690.91
2023-01-28T07:59:17.281Z,97693.09
2023-01-28T08:01:43.939Z,97688.09
2023-01-28T08:04:10.810Z,97693.41
2023-01-28T08:06:37.559Z,97699.00
2023-01-28T08:09:04.250Z,97696.88
2023-01-28T08:11:30.870Z,97699.41
2023-01-28T08:13:57.553Z,97703.91
2023-01-28T08:16:24.200Z,97701.16
2023-01-28T08:18:50.846Z,97707.75
2023-01-28T08:21:17.494Z,97703.81
2023-01-28T08:23:44.100Z,97702.69
2023-01-28T08:26:10.770Z,97706.94
2023-01-28T08:28:37.387Z,97708.44
2023-01-28T08:31:04.134Z,97710.66
2023-01-28T08:33:30.843Z,97720.03
2023-01-28T08:35:57.477Z,97713.09
2023-01-28T08:38:24.094Z,97711.69
2023-01-28T08:40:50.806Z,97722.66
2023-01-28T08:43:17.501Z,97721.97
2023-01-28T08:45:44.165Z,97737.13
2023-01-28T08:48:10.913Z,97733.56
2023-01-28T08:50:37.575Z,97735.88
2023-01-28T08:53:04.267Z,97745.38
2023-01-28T08:55:30.921Z,97732.75
2023-01-28T08:57:58.666Z,97741.28
2023-01-28T09:00:25.515Z,97749.00
2023-01-28T09:02:52.302Z,97751.03
2023-01-28T09:05:19.005Z,97747.06
2023-01-28T09:07:45.741Z,97736.31
2023-01-28T09:10:12.483Z,97748.34
2023-01-28T09:12:39.132Z,97759.75
2023-01-28T09:15:05.765Z,97754.38
2023-01-28T09:17:32.403Z,97756.56
2023-01-28T09:19:59.095Z,97762.28
2023-01-28T09:22:25.711Z,97768.09
2023-01-28T09:24:52.322Z,97764.81
2023-01-28T09:27:18.942Z,97760.91
2023-01-28T09:29:45.663Z,97769.34
2023-01-28T09:32:12.308Z,97771.75
2023-01-28T09:34:38.992Z,97776.25
2023-01-28T09:37:05.669Z,97780.53
2023-01-28T09:39:32.301Z,97772.97
2023-01-28T09:41:58.993Z,97778.03
2023-01-28T09:44:25.663Z,97775.50
2023-01-28T09:46:52.405Z,97774.50
2023-01-28T09:49:19.079Z,97782.78
2023-01-28T09:51:45.735Z,97777.50
2023-01-28T09:54:12.358Z,97782.41
2023-01-28T09:56:39.010Z,97778.16
2023-01-28T09:59:05.708Z,97767.75
2023-01-28T10:01:34.781Z,97776.63
2023-01-28T10:04:01.458Z,97772.84
2023-01-28T10:06:28.081Z,97774.50
2023-01-28T10:08:54.719Z,97770.59
2023-01-28T10:11:21.348Z,97773.38
2023-01-28T10:13:48.034Z,97772.06
2023-01-28T10:16:14.705Z,97771.22
2023-01-28T10:18:41.359Z,97773.25
2023-01-28T10:21:08.015Z,97770.84
2023-01-28T10:23:34.748Z,97768.16
2023-01-28T10:28:45.966Z,97771.06
2023-01-28T10:31:12.683Z,97772.19
2023-01-28T10:33:39.372Z,97770.00
2023-01-28T10:36:06.033Z,97765.78
2023-01-28T10:38:32.671Z,97762.31
2023-01-28T10:40:59.316Z,97759.81
2023-01-28T10:48:39.819Z,97757.25
2023-01-28T10:51:06.592Z,97755.03
2023-01-28T10:53:33.184Z,97751.75
2023-01-28T10:55:59.849Z,97762.53
2023-01-28T10:58:26.555Z,97762.44
2023-01-28T11:00:53.214Z,97759.56
2023-01-28T11:03:19.898Z,97765.06
2023-01-28T11:05:48.817Z,97760.53
2023-01-28T11:08:15.477Z,97746.78
2023-01-28T11:10:42.099Z,97746.53
2023-01-28T11:13:08.672Z,97748.59
2023-01-28T11:15:35.307Z,97743.31
2023-01-28T11:18:01.934Z,97750.25
2023-01-28T11:20:28.663Z,97754.03
2023-01-28T11:22:55.776Z,97752.06
2023-01-28T11:25:22.436Z,97747.31
2023-01-28T11:27:49.072Z,97744.78
2023-01-28T11:30:15.968Z,97752.88
2023-01-28T11:32:42.778Z,97745.56
2023-01-28T11:35:09.421Z,97738.19
2023-01-28T11:37:36.114Z,97734.31
2023-01-28T11:40:02.760Z,97738.25
2023-01-28T11:42:29.399Z,97727.28
2023-01-28T11:44:56.123Z,97725.13
2023-01-28T11:47:22.894Z,97724.59
2023-01-28T11:49:49.800Z,97726.97
2023-01-28T11:52:16.427Z,97728.13
2023-01-28T11:54:43.396Z,97730.25
2023-01-28T11:57:10.128Z,97728.25
2023-01-28T11:59:36.822Z,97729.22
2023-01-28T12:02:03.497Z,97724.63
2023-01-28T12:04:30.157Z,97727.75
2023-01-28T12:06:57.045Z,97726.25
2023-01-28T12:09:23.712Z,97722.97
2023-01-28T12:11:50.351Z,97717.78
2023-01-28T12:14:17.039Z,97723.09
2023-01-28T12:16:43.917Z,97711.63
2023-01-28T12:19:10.632Z,97713.06
2023-01-28T12:21:37.284Z,97713.63
2023-01-28T12:24:07.342Z,97711.28
2023-01-28T12:26:34.092Z,97709.91
2023-01-28T12:29:00.794Z,97702.31
2023-01-28T12:31:27.553Z,97701.38
2023-01-28T12:33:54.412Z,97704.44
2023-01-28T12:36:21.129Z,97702.50
2023-01-28T12:38:47.842Z,97702.13
2023-01-28T12:41:14.888Z,97706.94
2023-01-28T12:43:41.529Z,97704.56
2023-01-28T12:46:08.338Z,97700.53
2023-01-28T12:48:35.109Z,97713.00
2023-01-28T12:51:01.736Z,97713.66
2023-01-28T12:53:28.385Z,97715.16
2023-01-28T12:55:55.061Z,97717.06
2023-01-28T12:58:21.917Z,97712.75
2023-01-28T13:00:48.537Z,97707.75
2023-01-28T13:03:15.304Z,97711.91
2023-01-28T13:05:41.968Z,97712.63
2023-01-28T13:08:08.719Z,97715.47
2023-01-28T13:10:35.359Z,97714.38
2023-01-28T13:13:01.980Z,97719.00
2023-01-28T13:15:28.649Z,97717.13
2023-01-28T13:17:55.324Z,97715.03
2023-01-28T13:20:21.955Z,97714.75
2023-01-28T13:22:48.675Z,97711.66
2023-01-28T13:25:15.761Z,97713.50
2023-01-28T13:27:42.749Z,97719.47
2023-01-28T13:30:09.347Z,97717.91
2023-01-28T13:32:36.104Z,97724.03
2023-01-28T13:35:02.840Z,97729.75
2023-01-28T13:37:29.460Z,97726.31
2023-01-28T13:39:56.079Z,97728.63
2023-01-28T13:42:22.747Z,97730.00
2023-01-28T13:44:49.382Z,97734.38
2023-01-28T13:47:16.045Z,97736.44
2023-01-28T13:49:42.704Z,97737.09
2023-01-28T13:52:09.323Z,97744.41
2023-01-28T13:54:35.960Z,97757.03
2023-01-28T13:57:03.908Z,97746.84
2023-01-28T13:59:30.592Z,97757.63
2023-01-28T14:01:57.272Z,97755.41
2023-01-28T14:04:24.194Z,97761.75
2023-01-28T14:06:50.872Z,97755.19
2023-01-28T14:09:19.333Z,97764.63
2023-01-28T14:11:46.679Z,97763.22
2023-01-28T14:14:13.461Z,97769.19
2023-01-28T14:16:40.146Z,97760.97
2023-01-28T14:19:08.363Z,97761.41
2023-01-28T14:21:35.052Z,97771.41
2023-01-28T14:24:01.750Z,97778.59
2023-01-28T14:26:28.653Z,97772.47
2023-01-28T14:28:55.289Z,97770.19
2023-01-28T14:31:22.038Z,97778.31
2023-01-28T14:33:48.718Z,97783.44
2023-01-28T14:36:15.493Z,97779.41
2023-01-28T14:38:42.094Z,97772.97
2023-01-28T14:41:08.756Z,97782.94
2023-01-28T14:43:35.406Z,97789.44
2023-01-28T14:46:04.114Z,97791.66
2023-01-28T14:48:31.713Z,97794.41
2023-01-28T14:50:58.403Z,97798.28
2023-01-28T14:53:25.424Z,97798.16
2023-01-28T14:55:52.078Z,97793.16
2023-01-28T14:58:18.730Z,97800.69
2023-01-28T15:00:45.407Z,97801.06
2023-01-28T15:03:24.142Z,97808.59
2023-01-28T15:05:51.231Z,97814.38
2023-01-28T15:08:17.849Z,97812.16
2023-01-28T15:10:44.575Z,97813.44
2023-01-28T15:13:11.260Z,97816.75
2023-01-28T15:15:37.950Z,97815.63
2023-01-28T15:18:04.558Z,97816.38
2023-01-28T15:20:31.178Z,97815.84
2023-01-28T15:22:57.854Z,97824.47
2023-01-28T15:25:24.460Z,97827.03
2023-01-28T15:27:51.299Z,97834.47
2023-01-28T15:30:18.273Z,97836.97
2023-01-28T15:32:45.006Z,97841.88
2023-01-28T15:35:11.635Z,97838.81
2023-01-28T15:37:38.371Z,97839.72
2023-01-28T15:40:05.030Z,97836.91
2023-01-28T15:42:31.883Z,97839.47
2023-01-28T15:44:58.504Z,97839.78
2023-01-28T15:47:25.208Z,97843.88
2023-01-28T15:49:51.810Z,97845.91
2023-01-28T15:52:18.510Z,97842.91
2023-01-28T15:54:45.207Z,97847.69
2023-01-28T15:57:12.056Z,97845.53
2023-01-28T15:59:38.742Z,97854.59
2023-01-28T16:02:05.818Z,97854.81
2023-01-28T16:04:32.475Z,97855.41
2023-01-28T16:06:59.167Z,97861.13
2023-01-28T16:09:25.833Z,97870.81
2023-01-28T16:11:52.487Z,97873.56
2023-01-28T16:14:19.165Z,97877.84
2023-01-28T16:16:45.800Z,97885.59
2023-01-28T16:19:12.461Z,97893.22
2023-01-28T16:21:39.127Z,97893.94
2023-01-28T16:24:05.860Z,97891.94
2023-01-28T16:26:32.556Z,97891.41
2023-01-28T16:28:59.208Z,97893.69
2023-01-28T16:31:26.149Z,97898.94
2023-01-28T16:33:52.849Z,97902.16
2023-01-28T16:36:19.545Z,97892.63
2023-01-28T16:38:46.257Z,97907.03
2023-01-28T16:41:12.948Z,97906.66
2023-01-28T16:43:39.553Z,97908.59
2023-01-28T16:46:09.237Z,97909.13
2023-01-28T16:48:36.538Z,97906.66
2023-01-28T16:51:03.126Z,97914.13
2023-01-28T16:53:29.788Z,97905.56
2023-01-28T16:55:56.442Z,97913.66
2023-01-28T16:58:23.177Z,97914.38
2023-01-28T17:00:49.843Z,97920.38
2023-01-28T17:03:16.532Z,97920.03
2023-01-28T17:05:43.144Z,97915.28
2023-01-28T17:08:09.793Z,97917.78
2023-01-28T17:10:36.531Z,97921.03
2023-01-28T17:13:03.219Z,97927.16
2023-01-28T17:15:29.867Z,97923.69
2023-01-28T17:17:56.528Z,97925.88
2023-01-28T17:20:23.253Z,97926.78
2023-01-28T17:22:49.858Z,97930.81
2023-01-28T17:25:16.835Z,97932.13
2023-01-28T17:27:43.608Z,97935.97
2023-01-28T17:30:10.289Z,97944.06
2023-01-28T17:32:36.931Z,97943.34
2023-01-28T17:35:03.580Z,97944.22
2023-01-28T17:37:30.185Z,97946.47
2023-01-28T17:39:56.875Z,97950.25
2023-01-28T17:42:23.558Z,97954.16
2023-01-28T17:44:50.154Z,97954.28
2023-01-28T17:47:16.769Z,97949.47
2023-01-28T17:49:43.452Z,97951.81
2023-01-28T17:52:10.118Z,97964.69
2023-01-28T17:54:36.703Z,97957.19
2023-01-28T17:57:03.372Z,97965.78
2023-01-28T17:59:29.990Z,97959.13
2023-01-28T18:01:56.623Z,97973.88
2023-01-28T18:04:23.299Z,97969.91
2023-01-28T18:06:50.041Z,97971.28
2023-01-28T18:09:16.660Z,97976.75
2023-01-28T18:11:43.270Z,97972.38
2023-01-28T18:14:09.932Z,97965.97
2023-01-28T18:16:36.569Z,97973.63
2023-01-28T18:19:03.248Z,97966.50
2023-01-28T18:21:31.669Z,97971.81
2023-01-28T18:24:01.431Z,97978.00
2023-01-28T18:26:28.119Z,97974.19
2023-01-28T18:28:54.718Z,97980.78
2023-01-28T18:31:21.385Z,97979.25
2023-01-28T18:33:48.094Z,97984.31
2023-01-28T18:36:14.719Z,97987.75
2023-01-28T18:38:41.303Z,97989.00
2023-01-28T18:41:07.925Z,97989.78
2023-01-28T18:43:34.588Z,98001.81
2023-01-28T18:46:01.304Z,98000.59
2023-01-28T18:48:27.956Z,98004.31
2023-01-28T18:50:54.603Z,97997.50
2023-01-28T18:53:21.248Z,98001.28
2023-01-28T18:55:47.891Z,98007.09
2023-01-28T18:58:14.607Z,98005.03
2023-01-28T19:00:41.256Z,98004.75
2023-01-28T19:03:07.902Z,98010.34
2023-01-28T19:05:37.707Z,98005.44
2023-01-28T19:08:04.432Z,98006.81
2023-01-28T19:10:31.233Z,98010.66
2023-01-28T19:12:57.926Z,98010.66
2023-01-28T19:15:24.633Z,98016.97
2023-01-28T19:17:51.292Z,98013.00
2023-01-28T19:20:17.980Z,98019.28
2023-01-28T19:22:47.669Z,98022.25
2023-01-28T19:25:14.741Z,98020.59
2023-01-28T19:27:41.540Z,98025.44
2023-01-28T19:30:08.155Z,98027.09
2023-01-28T19:32:34.836Z,98031.00
2023-01-28T19:35:01.581Z,98021.09
2023-01-28T19:37:28.213Z,98021.91
2023-01-28T19:39:54.893Z,98020.00
2023-01-28T19:42:21.559Z,98028.28
2023-01-28T19:44:48.151Z,98027.22
2023-01-28T19:47:14.812Z,98022.56
2023-01-28T19:49:41.581Z,98027.75
2023-01-28T19:52:08.218Z,98030.47
2023-01-28T19:54:34.921Z,98029.97
2023-01-28T19:57:01.584Z,98034.06
2023-01-28T19:59:28.652Z,98038.56
2023-01-28T20:01:55.320Z,98032.75
2023-01-28T20:04:21.968Z,98036.69
2023-01-28T20:06:48.629Z,98042.78
2023-01-28T20:09:15.294Z,98046.94
2023-01-28T20:11:41.964Z,98041.88
2023-01-28T20:14:08.568Z,98043.00
2023-01-28T20:16:35.196Z,98042.19
2023-01-28T20:19:01.832Z,98039.88
2023-01-28T20:21:28.473Z,98043.88
2023-01-28T20:23:55.175Z,98037.97
2023-01-28T20:26:21.871Z,98044.97
2023-01-28T20:28:48.577Z,98048.53
2023-01-28T20:31:15.297Z,98052.19
2023-01-28T20:33:42.022Z,98052.97
2023-01-28T20:36:08.647Z,98055.84
2023-01-28T20:38:35.314Z,98064.91
2023-01-28T20:41:01.926Z,98064.66
2023-01-28T20:43:28.804Z,98065.53
2023-01-28T20:45:55.508Z,98068.09
2023-01-28T20:48:22.209Z,98069.31
2023-01-28T20:50:48.853Z,98068.47
2023-01-28T20:53:15.508Z,98071.78
2023-01-28T20:55:42.192Z,98071.91
2023-01-28T20:58:08.812Z,98070.28
2023-01-28T21:00:35.558Z,98075.19
2023-01-28T21:03:02.210Z,98073.41
2023-01-28T21:05:28.874Z,98072.63
2023-01-28T21:07:55.511Z,98070.13
2023-01-28T21:10:22.160Z,98074.44
2023-01-28T21:12:48.840Z,98070.28
2023-01-28T21:15:15.478Z,98072.19
2023-01-28T21:17:42.080Z,98079.69
2023-01-28T21:20:08.729Z,98081.78
2023-01-28T21:22:35.379Z,98086.69
2023-01-28T21:25:04.352Z,98083.41
2023-01-28T21:27:31.992Z,98085.53
2023-01-28T21:29:58.770Z,98092.59
2023-01-28T21:32:27.573Z,98083.69
2023-01-28T21:34:54.277Z,98089.81
2023-01-28T21:37:20.902Z,98085.50
2023-01-28T21:39:47.738Z,98095.28
2023-01-28T21:42:14.412Z,98099.41
2023-01-28T21:44:41.015Z,98097.44
2023-01-28T21:47:07.682Z,98104.19
2023-01-28T21:49:34.284Z,98105.44
2023-01-28T21:52:00.952Z,98097.81
2023-01-28T21:54:27.579Z,98104.94
2023-01-28T21:56:54.196Z,98109.19
2023-01-28T21:59:20.832Z,98102.03
2023-01-28T22:01:47.506Z,98102.06
2023-01-28T22:04:14.275Z,98102.88
2023-01-28T22:06:41.098Z,98104.19
2023-01-28T22:09:07.784Z,98103.00
2023-01-28T22:11:34.459Z,98107.66
2023-01-28T22:14:01.149Z,98108.69
2023-01-28T22:16:27.798Z,98109.56
2023-01-28T22:18:54.435Z,98111.47
2023-01-28T22:21:21.053Z,98116.09
2023-01-28T22:23:47.717Z,98113.56
2023-01-28T22:26:14.292Z,98120.22
2023-01-28T22:28:40.959Z,98116.13
2023-01-28T22:31:07.716Z,98121.34
2023-01-28T22:33:34.385Z,98114.31
2023-01-28T22:36:01.220Z,98116.38
2023-01-28T22:38:27.833Z,98115.16
2023-01-28T22:40:54.533Z,98112.00
2023-01-28T22:43:21.243Z,98123.13
2023-01-28T22:45:47.927Z,98121.63
2023-01-28T22:48:14.583Z,98120.00
2023-01-28T22:50:41.265Z,98113.56
2023-01-28T22:53:07.948Z,98124.25
2023-01-28T22:55:34.601Z,98115.34
2023-01-28T22:58:01.256Z,98119.19
2023-01-28T23:00:27.874Z,98114.81
2023-01-28T23:02:54.506Z,98111.88
2023-01-28T23:05:21.339Z,98108.72
2023-01-28T23:07:48.030Z,98114.56
2023-01-28T23:10:15.060Z,98111.03
2023-01-28T23:12:41.846Z,98112.09
2023-01-28T23:15:08.461Z,98113.25
2023-01-28T23:17:35.091Z,98114.63
2023-01-28T23:20:01.753Z,98111.38
2023-01-28T23:22:28.375Z,98114.50
2023-01-28T23:24:54.992Z,98108.19
2023-01-28T23:27:21.635Z,98112.88
2023-01-28T23:29:48.284Z,98111.91
2023-01-28T23:32:14.890Z,98116.31
2023-01-28T23:34:41.572Z,98117.06
2023-01-28T23:37:08.189Z,98117.13
2023-01-28T23:39:34.799Z,98127.34
2023-01-28T23:42:01.540Z,98124.38
2023-01-28T23:44:28.210Z,98130.69
2023-01-28T23:46:55.000Z,98129.72
2023-01-28T23:49:21.687Z,98128.09
2023-01-28T23:51:48.381Z,98123.94
2023-01-28T23:54:14.963Z,98128.59
2023-01-28T23:56:41.613Z,98130.78
2023-01-28T23:59:08.225Z,98127.38
